Time;durP1;ratioP1;P1;durP2;ratioP2;P2;SDS_P1;SDS_P2;PMS_P1;PMS_P2;Temp;Humidity;BMP_temperature;BMP_pressure;BME280_temperature;BME280_humidity;BME280_pressure;Samples;Min_cycle;Max_cycle;Signal;HPM_P1;HPM_P2
2021/12/12 09:31:29;;;;;;;5.47;3.35;;;;;;;5.75;62.45;100964.38;1087905;54;20433;-83
2021/12/12 09:32:38;;;;;;;5.22;3.35;;;;;;;5.70;62.63;100958.47;1088104;54;20038;-83
2021/12/12 09:33:49;;;;;;;6.18;3.92;;;;;;;5.72;62.44;100964.53;1093972;31;20679;-80
2021/12/12 09:35:00;;;;;;;4.65;2.80;;;;;;;5.63;62.83;100962.44;1087460;54;20034;-79
2021/12/12 09:36:07;;;;;;;5.50;3.28;;;;;;;5.50;62.92;100961.44;1087754;54;20046;-80
2021/12/12 09:38:53;;;;;;;6.85;4.40;;;;;;;5.19;63.57;100973.81;1087629;54;20055;-80
2021/12/12 09:41:49;;;;;;;6.32;3.42;;;;;;;5.18;63.04;100975.59;1086726;54;20086;-79
2021/12/12 09:43:29;;;;;;;6.35;3.40;;;;;;;5.18;63.28;100970.28;1086931;54;20060;-79
2021/12/12 09:44:50;;;;;;;5.43;3.50;;;;;;;5.20;63.08;100971.06;1086532;54;20106;-81
2021/12/12 09:46:08;;;;;;;4.90;3.20;;;;;;;5.09;63.83;100963.75;1088035;39;20700;-80
2021/12/12 09:47:28;;;;;;;7.35;3.83;;;;;;;4.91;63.63;100962.97;1086090;54;20050;-79
2021/12/12 09:52:11;;;;;;;8.30;4.25;;;;;;;4.70;64.48;100954.44;1087221;54;20042;-79
2021/12/12 09:53:55;;;;;;;7.32;4.22;;;;;;;4.77;64.14;100949.66;1087250;54;20034;-79
2021/12/12 09:55:06;;;;;;;6.53;3.80;;;;;;;4.61;64.63;100954.94;1086854;54;20026;-81
2021/12/12 09:56:14;;;;;;;6.65;4.28;;;;;;;4.70;64.26;100959.72;1087575;54;20057;-80
2021/12/12 09:57:25;;;;;;;6.78;3.75;;;;;;;4.76;64.00;100963.84;1087241;54;20035;-80
2021/12/12 09:58:37;;;;;;;5.55;3.42;;;;;;;4.74;63.99;100958.59;1087370;54;20042;-80
2021/12/12 10:00:04;;;;;;;7.82;3.90;;;;;;;4.65;64.20;100962.63;1087464;54;20034;-80
2021/12/12 10:01:12;;;;;;;5.80;3.60;;;;;;;4.72;64.24;100962.28;1087841;47;20022;-80
2021/12/12 10:02:25;;;;;;;6.57;3.67;;;;;;;4.79;64.05;100961.88;1087124;54;20034;-81
2021/12/12 10:03:36;;;;;;;8.00;3.97;;;;;;;4.79;64.27;100958.34;1087614;54;20037;-81
2021/12/12 10:05:03;;;;;;;5.35;3.05;;;;;;;4.84;64.11;100959.81;1087989;47;20037;-80
2021/12/12 10:06:10;;;;;;;6.20;3.08;;;;;;;4.88;64.00;100959.63;1086868;54;20034;-80
2021/12/12 10:07:23;;;;;;;6.05;3.70;;;;;;;4.94;63.69;100962.81;1087306;54;20041;-80
2021/12/12 10:09:10;;;;;;;5.30;3.30;;;;;;;4.94;63.46;100960.16;1087203;54;20038;-80
2021/12/12 10:10:15;;;;;;;6.00;3.90;;;;;;;4.82;64.14;100956.38;1087145;54;20123;-80
2021/12/12 10:11:28;;;;;;;5.72;3.20;;;;;;;4.94;64.07;100951.34;1087279;54;20095;-80
2021/12/12 10:12:36;;;;;;;7.00;3.40;;;;;;;4.99;64.08;100950.13;1087523;54;20010;-82
2021/12/12 10:13:44;;;;;;;6.50;3.78;;;;;;;4.77;64.35;100955.78;1088075;54;20034;-83
2021/12/12 10:15:04;;;;;;;6.65;3.78;;;;;;;4.77;64.70;100942.53;1088267;54;20038;-82
2021/12/12 10:16:18;;;;;;;8.52;3.88;;;;;;;4.58;65.12;100949.78;1088053;54;20041;-81
2021/12/12 10:17:31;;;;;;;7.22;4.75;;;;;;;4.50;65.29;100948.44;1088141;54;20038;-83
2021/12/12 10:18:46;;;;;;;6.03;4.00;;;;;;;4.77;64.80;100952.31;1092950;39;20690;-82
2021/12/12 10:20:00;;;;;;;6.55;3.72;;;;;;;4.82;64.43;100952.88;1087835;54;20041;-82
2021/12/12 10:21:08;;;;;;;5.85;3.40;;;;;;;5.02;64.02;100949.09;1087763;54;20030;-81
2021/12/12 10:22:27;;;;;;;7.03;3.70;;;;;;;4.93;64.19;100945.19;1087964;54;20118;-81
2021/12/12 10:23:48;;;;;;;6.03;3.65;;;;;;;5.02;63.80;100946.44;1086646;54;20122;-81
2021/12/12 10:25:01;;;;;;;5.70;3.80;;;;;;;4.97;64.24;100943.22;1087388;54;20044;-81
2021/12/12 10:26:05;;;;;;;5.60;3.60;;;;;;;5.10;63.90;100946.03;1086913;54;20046;-81
2021/12/12 10:27:15;;;;;;;6.90;3.80;;;;;;;5.06;64.07;100945.34;1087081;54;20071;-80
2021/12/12 10:28:24;;;;;;;6.07;3.25;;;;;;;5.17;63.72;100943.88;1087136;39;20579;-81
2021/12/12 10:29:29;;;;;;;6.95;3.65;;;;;;;5.21;63.52;100942.75;1086926;54;20069;-80
2021/12/12 10:30:37;;;;;;;4.72;2.85;;;;;;;5.26;63.26;100936.25;1086084;54;20633;-80
2021/12/12 10:31:42;;;;;;;5.57;3.20;;;;;;;5.32;63.07;100948.28;1087178;54;20675;-81
2021/12/12 10:32:59;;;;;;;5.60;3.33;;;;;;;5.37;62.93;100940.94;1087732;54;20046;-81
2021/12/12 10:34:04;;;;;;;6.80;3.75;;;;;;;5.08;63.22;100943.47;1087948;54;20057;-82
2021/12/12 10:35:12;;;;;;;7.07;3.83;;;;;;;5.16;63.68;100945.66;1087868;54;20049;-82
2021/12/12 10:36:18;;;;;;;6.38;3.72;;;;;;;5.17;63.33;100942.06;1087425;54;20035;-81
2021/12/12 10:37:28;;;;;;;6.60;3.92;;;;;;;4.93;63.87;100944.31;1087078;54;20031;-82
2021/12/12 10:38:41;;;;;;;6.32;3.85;;;;;;;4.91;64.10;100943.56;1086275;54;20034;-80
2021/12/12 10:39:45;;;;;;;6.82;4.00;;;;;;;4.89;64.23;100937.50;1085910;54;20530;-79
2021/12/12 10:40:55;;;;;;;6.60;3.63;;;;;;;5.04;64.06;100944.56;1085563;54;20099;-80
2021/12/12 10:42:01;;;;;;;6.05;3.63;;;;;;;5.18;63.31;100943.78;1086420;54;20069;-79
2021/12/12 10:43:14;;;;;;;5.90;3.60;;;;;;;5.04;63.83;100952.53;1088597;47;20044;-82
2021/12/12 10:44:24;;;;;;;5.65;3.63;;;;;;;5.10;63.48;100944.22;1087468;54;20696;-82
2021/12/12 10:45:31;;;;;;;6.90;3.53;;;;;;;5.24;63.39;100934.63;1086726;54;20063;-81
2021/12/12 10:46:43;;;;;;;4.97;2.70;;;;;;;5.31;62.98;100931.53;1086870;54;20083;-80
2021/12/12 10:47:56;;;;;;;6.13;3.08;;;;;;;5.38;62.71;100928.53;1087265;54;20038;-80
2021/12/12 10:49:09;;;;;;;6.28;3.95;;;;;;;5.23;62.85;100930.28;1087165;54;20031;-80
2021/12/12 10:50:21;;;;;;;6.18;3.78;;;;;;;5.27;63.09;100930.00;1086882;54;20034;-79
2021/12/12 10:51:30;;;;;;;6.07;3.28;;;;;;;5.26;63.11;100920.34;1087148;54;20047;-80
2021/12/12 10:52:37;;;;;;;5.38;3.25;;;;;;;5.28;63.17;100925.56;1086634;54;20031;-82
2021/12/12 10:53:46;;;;;;;5.55;3.13;;;;;;;5.26;63.18;100930.09;1086818;54;20046;-79
2021/12/12 10:54:55;;;;;;;8.15;3.33;;;;;;;5.13;63.34;100930.78;1087139;54;20066;-81
2021/12/12 10:56:04;;;;;;;6.80;3.38;;;;;;;5.25;62.81;100928.38;1086976;54;20061;-80
2021/12/12 10:57:13;;;;;;;5.80;3.67;;;;;;;5.22;62.87;100928.56;1087565;54;20038;-81
2021/12/12 10:58:21;;;;;;;6.13;3.67;;;;;;;5.19;62.75;100934.06;1087803;54;20034;-82
2021/12/12 10:59:36;;;;;;;6.70;3.53;;;;;;;5.07;63.15;100925.00;1087349;54;20066;-82
2021/12/12 11:00:50;;;;;;;6.10;3.70;;;;;;;5.25;62.92;100928.38;1087056;54;20042;-80
2021/12/12 11:01:58;;;;;;;6.22;3.90;;;;;;;5.29;62.79;100919.31;1087482;54;20018;-80
2021/12/12 11:03:07;;;;;;;6.30;3.70;;;;;;;5.25;62.77;100912.47;1087366;54;20046;-82
2021/12/12 11:04:16;;;;;;;7.40;3.85;;;;;;;5.25;62.73;100913.31;1086951;54;20063;-80
2021/12/12 11:05:29;;;;;;;6.65;3.78;;;;;;;5.27;62.90;100914.09;1087266;54;20018;-80
2021/12/12 11:06:39;;;;;;;8.02;4.35;;;;;;;5.13;63.08;100917.53;1087854;54;20061;-81
2021/12/12 11:07:48;;;;;;;5.50;3.65;;;;;;;5.11;63.11;100919.41;1087935;54;20038;-80
2021/12/12 11:13:35;;;;;;;6.30;3.28;;;;;;;5.39;62.52;100912.50;1085710;54;20034;-80
2021/12/12 11:14:44;;;;;;;5.30;3.20;;;;;;;5.23;62.89;100911.72;1086927;54;20046;-79
2021/12/12 11:15:53;;;;;;;5.72;3.10;;;;;;;5.25;63.05;100915.97;1087097;54;20054;-81
2021/12/12 11:17:02;;;;;;;5.03;3.13;;;;;;;5.45;62.67;100906.88;1087139;54;20029;-79
2021/12/12 11:18:13;;;;;;;5.85;3.53;;;;;;;5.52;62.32;100914.44;1086333;54;20051;-80
2021/12/12 11:19:17;;;;;;;6.20;3.15;;;;;;;5.61;62.12;100911.25;1086284;54;20576;-79
2021/12/12 11:20:24;;;;;;;5.68;2.83;;;;;;;5.63;62.37;100912.03;1087149;54;20049;-78
2021/12/12 11:21:31;;;;;;;5.25;2.88;;;;;;;5.72;62.05;100915.91;1088219;39;20471;-79
2021/12/12 11:22:39;;;;;;;5.57;2.80;;;;;;;5.62;61.94;100905.00;1084751;54;20030;-78
2021/12/12 11:23:48;;;;;;;5.80;3.47;;;;;;;5.56;62.36;100910.69;1085170;46;20046;-77
2021/12/12 11:24:58;;;;;;;6.45;3.72;;;;;;;5.71;62.32;100899.16;1084309;54;20067;-78
2021/12/12 11:26:04;;;;;;;5.65;3.45;;;;;;;5.78;62.05;100900.47;1084310;54;20067;-80
2021/12/12 11:27:11;;;;;;;6.63;3.92;;;;;;;5.75;61.83;100899.81;1084177;54;20039;-78
2021/12/12 11:28:21;;;;;;;6.20;3.42;;;;;;;5.54;62.34;100894.00;1084139;54;20668;-79
2021/12/12 11:29:29;;;;;;;5.13;3.10;;;;;;;5.70;61.97;100897.44;1084274;54;20074;-80
2021/12/12 11:30:34;;;;;;;6.40;3.15;;;;;;;5.52;62.31;100898.53;1084530;46;20042;-80
2021/12/12 11:31:45;;;;;;;6.03;3.58;;;;;;;5.50;62.71;100900.41;1084405;54;20047;-79
2021/12/12 11:32:48;;;;;;;;;;;;;;;5.51;62.59;100900.34;1084672;54;20072;-80
2021/12/12 11:33:56;;;;;;;5.65;3.15;;;;;;;5.69;62.46;100895.72;1084501;54;19951;-79
2021/12/12 11:35:01;;;;;;;7.50;3.17;;;;;;;5.62;62.53;100905.84;1084689;54;20039;-80
2021/12/12 11:36:12;;;;;;;6.32;3.10;;;;;;;5.62;62.83;100892.59;1084435;54;20065;-80
2021/12/12 11:37:17;;;;;;;7.35;3.25;;;;;;;5.67;62.53;100889.66;1084424;54;20069;-80
2021/12/12 11:38:29;;;;;;;6.82;3.10;;;;;;;5.86;62.05;100891.19;1084018;54;20169;-77
2021/12/12 11:39:38;;;;;;;5.07;2.97;;;;;;;5.97;61.60;100879.94;1083658;54;20038;-81
2021/12/12 11:40:46;;;;;;;6.55;3.58;;;;;;;5.97;61.93;100891.38;1084519;54;20034;-78
2021/12/12 11:41:56;;;;;;;6.28;3.70;;;;;;;5.72;62.45;100897.34;1084329;54;20038;-80
2021/12/12 11:43:07;;;;;;;6.18;3.63;;;;;;;5.76;62.47;100885.59;1084515;54;20056;-80
2021/12/12 11:44:19;;;;;;;5.60;3.40;;;;;;;5.92;61.94;100888.19;1083528;54;20109;-78
2021/12/12 11:45:26;;;;;;;5.63;3.22;;;;;;;5.87;62.02;100888.47;1083660;54;20038;-79
2021/12/12 11:46:33;;;;;;;5.72;3.03;;;;;;;5.82;62.01;100887.03;1084533;39;20467;-78
2021/12/12 11:47:54;;;;;;;5.85;3.25;;;;;;;5.77;61.89;100880.19;1086608;31;20499;-79
2021/12/12 11:49:07;;;;;;;4.78;3.00;;;;;;;5.69;62.48;100879.81;1084433;54;20065;-79
2021/12/12 11:50:15;;;;;;;6.55;3.42;;;;;;;5.74;62.50;100883.06;1084655;54;20039;-80
2021/12/12 11:51:24;;;;;;;5.90;3.80;;;;;;;5.69;62.69;100877.16;1084456;54;20944;-78
2021/12/12 11:52:38;;;;;;;5.53;3.58;;;;;;;5.57;62.87;100869.97;1084713;54;20042;-79
2021/12/12 11:53:46;;;;;;;7.15;4.00;;;;;;;5.58;62.90;100875.16;1084812;54;20034;-79
2021/12/12 11:54:58;;;;;;;5.93;3.53;;;;;;;5.56;63.06;100881.50;1084541;54;20581;-77
2021/12/12 11:56:06;;;;;;;6.68;3.85;;;;;;;5.44;63.61;100878.63;1084507;54;20045;-79
2021/12/12 11:57:16;;;;;;;7.63;3.00;;;;;;;5.61;63.21;100887.38;1084508;54;20034;-80
2021/12/12 11:58:29;;;;;;;7.20;3.75;;;;;;;5.57;63.07;100880.56;1085330;54;20042;-79
2021/12/12 11:59:38;;;;;;;5.95;3.28;;;;;;;5.53;63.55;100887.00;1085831;54;20625;-80
2021/12/12 12:00:49;;;;;;;6.55;3.90;;;;;;;5.53;63.51;100884.34;1085824;54;20042;-80
2021/12/12 12:02:04;;;;;;;5.93;3.47;;;;;;;5.42;63.88;100880.53;1085590;54;20039;-78
2021/12/12 12:03:23;;;;;;;6.13;3.70;;;;;;;5.40;63.81;100885.06;1085422;54;20039;-78
2021/12/12 12:04:56;;;;;;;7.72;3.22;;;;;;;5.48;63.63;100881.97;1085637;54;21060;-79
2021/12/12 12:06:22;;;;;;;6.80;3.63;;;;;;;5.43;63.58;100886.69;1087535;31;20617;-78
2021/12/12 12:07:41;;;;;;;7.22;3.75;;;;;;;5.57;63.15;100885.88;1085680;54;20050;-79
2021/12/12 12:09:00;;;;;;;8.57;4.50;;;;;;;5.46;63.61;100889.16;1090195;39;20442;-79
2021/12/12 12:10:13;;;;;;;6.63;3.92;;;;;;;5.52;63.42;100877.31;1086719;39;20580;-79
2021/12/12 12:11:28;;;;;;;6.50;3.92;;;;;;;5.60;62.95;100872.41;1086060;54;20042;-80
2021/12/12 12:12:54;;;;;;;6.75;3.28;;;;;;;5.59;63.28;100883.97;1085921;54;20045;-79
2021/12/12 12:14:06;;;;;;;6.65;3.60;;;;;;;5.54;63.15;100880.75;1086464;31;20663;-78
2021/12/12 12:15:16;;;;;;;7.95;3.53;;;;;;;5.61;63.22;100874.13;1087007;39;20522;-79
2021/12/12 12:16:32;;;;;;;7.57;3.33;;;;;;;5.69;62.98;100877.16;1085853;54;20656;-79
2021/12/12 12:17:52;;;;;;;6.72;3.70;;;;;;;5.53;63.22;100879.88;1086412;47;20050;-80
2021/12/12 12:19:06;;;;;;;5.43;3.10;;;;;;;5.56;63.64;100877.03;1086055;54;20061;-81
2021/12/12 12:20:24;;;;;;;6.13;3.40;;;;;;;5.70;63.28;100876.22;1085653;54;20136;-80
2021/12/12 12:21:35;;;;;;;5.78;3.40;;;;;;;5.66;63.28;100879.13;1085947;54;20038;-80
2021/12/12 12:22:46;;;;;;;5.97;3.38;;;;;;;5.56;63.28;100876.22;1086176;54;21003;-80
2021/12/12 12:24:13;;;;;;;6.70;3.72;;;;;;;5.57;63.41;100881.41;1086053;54;20046;-80
2021/12/12 12:25:25;;;;;;;6.65;3.70;;;;;;;5.51;63.75;100873.81;1086420;54;20034;-83
2021/12/12 12:27:59;;;;;;;7.18;3.65;;;;;;;5.53;63.48;100874.56;1086052;54;20042;-79
2021/12/12 12:29:08;;;;;;;9.13;3.40;;;;;;;5.50;63.77;100885.38;1085953;54;20042;-79
2021/12/12 12:30:36;;;;;;;7.18;3.25;;;;;;;5.51;63.47;100876.47;1086374;39;20557;-79
2021/12/12 12:32:11;;;;;;;6.38;3.10;;;;;;;5.56;63.68;100884.16;1086452;54;20034;-79
2021/12/12 12:33:59;;;;;;;5.85;3.00;;;;;;;5.59;63.55;100884.81;1086014;54;20067;-81
2021/12/12 12:35:36;;;;;;;7.15;3.42;;;;;;;5.55;63.76;100877.16;1087350;54;20099;-80
2021/12/12 12:37:25;;;;;;;7.15;3.28;;;;;;;5.62;63.44;100886.44;1087179;54;20038;-79
2021/12/12 12:38:59;;;;;;;9.18;3.22;;;;;;;5.66;63.38;100884.44;1085496;54;20054;-79
2021/12/12 12:40:41;;;;;;;6.70;3.30;;;;;;;5.62;63.13;100874.00;1085416;54;20063;-79
2021/12/12 12:42:21;;;;;;;6.38;3.28;;;;;;;5.75;63.04;100878.59;1085660;54;20043;-80
2021/12/12 12:43:55;;;;;;;6.45;3.10;;;;;;;5.73;62.57;100873.38;1085351;54;20034;-79
2021/12/12 12:45:26;;;;;;;8.60;3.38;;;;;;;5.72;62.98;100874.31;1085816;54;20038;-80
2021/12/12 12:47:01;;;;;;;5.57;3.10;;;;;;;5.66;62.79;100863.22;1086067;54;20094;-80
2021/12/12 12:48:33;;;;;;;7.97;3.70;;;;;;;5.68;63.16;100856.88;1085932;54;20042;-81
2021/12/12 12:50:35;;;;;;;6.15;2.90;;;;;;;5.80;63.02;100857.06;1086882;39;20489;-80
2021/12/12 12:52:03;;;;;;;7.20;3.67;;;;;;;5.86;62.82;100854.91;1085466;54;20038;-79
2021/12/12 12:53:40;;;;;;;6.88;3.55;;;;;;;5.88;62.57;100860.09;1085360;54;20034;-79
2021/12/12 12:54:47;;;;;;;6.35;3.30;;;;;;;6.02;62.47;100860.16;1085192;54;20058;-81
2021/12/12 12:56:18;;;;;;;5.95;3.10;;;;;;;6.16;62.15;100850.47;1085586;54;20045;-79
2021/12/12 12:57:26;;;;;;;7.07;3.40;;;;;;;6.15;62.32;100859.38;1086271;39;20544;-79
2021/12/12 12:58:38;;;;;;;6.63;3.97;;;;;;;6.01;62.42;100858.44;1085936;54;20065;-80
2021/12/12 12:59:55;;;;;;;5.78;3.20;;;;;;;5.96;62.31;100860.47;1085667;54;22423;-79
2021/12/12 13:01:07;;;;;;;7.38;3.17;;;;;;;6.18;62.04;100854.75;1085619;54;20057;-79
2021/12/12 13:02:12;;;;;;;6.97;3.00;;;;;;;6.14;62.14;100858.53;1085017;54;20065;-80
2021/12/12 13:03:41;;;;;;;8.07;4.03;;;;;;;6.02;61.87;100865.47;1085700;54;20582;-78
2021/12/12 13:05:01;;;;;;;5.40;3.45;;;;;;;6.01;62.13;100860.22;1085908;54;20038;-79
2021/12/12 13:06:41;;;;;;;5.55;3.13;;;;;;;6.05;62.36;100853.78;1085323;54;20050;-78
2021/12/12 13:08:48;;;;;;;7.18;3.70;;;;;;;6.05;62.08;100854.63;1085841;46;20054;-80
2021/12/12 13:09:59;;;;;;;5.50;3.22;;;;;;;5.96;62.33;100857.81;1085506;54;20035;-80
2021/12/12 13:11:05;;;;;;;6.50;3.35;;;;;;;6.01;62.56;100858.44;1085125;54;20034;-80
2021/12/12 13:12:40;;;;;;;6.47;3.63;;;;;;;6.05;62.31;100853.78;1085181;54;20124;-79
2021/12/12 13:13:50;;;;;;;6.75;3.47;;;;;;;6.11;62.12;100857.88;1085375;54;20042;-81
2021/12/12 13:14:59;;;;;;;;;;;;;;;5.99;62.10;100859.47;1085407;54;20035;-79
2021/12/12 13:16:07;;;;;;;8.18;3.63;;;;;;;5.90;62.66;100859.06;1085782;54;19954;-80
2021/12/12 13:17:12;;;;;;;9.23;3.75;;;;;;;5.94;62.71;100852.63;1085474;54;20039;-79
2021/12/12 13:18:37;;;;;;;7.80;3.83;;;;;;;5.96;62.44;100854.34;1085515;54;20046;-78
2021/12/12 13:19:49;;;;;;;7.35;3.67;;;;;;;5.97;62.52;100862.19;1085378;54;20038;-78
2021/12/12 13:21:09;;;;;;;7.07;3.80;;;;;;;5.88;62.97;100855.66;1085500;54;20046;-79
2021/12/12 13:22:23;;;;;;;7.88;3.50;;;;;;;5.86;63.24;100857.56;1085167;54;20723;-79
2021/12/12 13:23:46;;;;;;;7.50;3.05;;;;;;;5.93;63.06;100855.38;1085334;54;20057;-79
2021/12/12 13:25:05;;;;;;;7.65;3.30;;;;;;;5.88;63.03;100849.50;1086546;39;20501;-79
2021/12/12 13:26:14;;;;;;;7.38;4.13;;;;;;;5.91;63.19;100858.13;1085354;54;20107;-80
2021/12/12 13:27:33;;;;;;;7.07;3.90;;;;;;;5.91;63.50;100849.31;1085266;54;20042;-79
2021/12/12 13:28:56;;;;;;;8.45;4.03;;;;;;;5.93;63.57;100836.81;1085917;54;20064;-79
2021/12/12 13:30:28;;;;;;;7.00;3.83;;;;;;;5.90;63.67;100839.63;1085681;54;20065;-79
2021/12/12 13:31:58;;;;;;;8.93;4.38;;;;;;;5.86;63.47;100835.47;1086405;46;20962;-81
2021/12/12 13:33:17;;;;;;;8.43;4.18;;;;;;;5.93;63.53;100834.16;1085500;54;20034;-80
2021/12/12 13:34:38;;;;;;;9.82;3.92;;;;;;;6.02;63.21;100824.78;1085265;54;20048;-79
2021/12/12 13:36:03;;;;;;;9.77;4.53;;;;;;;5.90;63.52;100829.88;1084965;54;20068;-82
2021/12/12 13:37:31;;;;;;;8.27;4.15;;;;;;;5.86;63.78;100830.16;1085242;54;20030;-78
2021/12/12 13:38:55;;;;;;;7.50;3.90;;;;;;;6.03;63.60;100824.69;1085337;54;20051;-80
2021/12/12 13:40:20;;;;;;;6.75;3.55;;;;;;;6.09;63.38;100839.41;1085282;54;20034;-79
2021/12/12 13:41:32;;;;;;;9.77;4.07;;;;;;;5.98;63.42;100832.06;1085496;54;20045;-80
2021/12/12 13:42:55;;;;;;;6.97;3.65;;;;;;;6.07;63.47;100831.50;1085185;54;20046;-78
2021/12/12 13:44:10;;;;;;;7.50;3.45;;;;;;;5.99;63.54;100832.91;1085656;54;20080;-80
2021/12/12 13:45:32;;;;;;;7.47;3.65;;;;;;;5.96;63.99;100836.59;1085936;54;20038;-80
2021/12/12 13:46:53;;;;;;;9.57;4.38;;;;;;;6.02;63.68;100832.75;1087817;46;20068;-81
2021/12/12 13:48:16;;;;;;;;;;;;;;;5.96;63.67;100831.28;1085845;54;20042;-78
2021/12/12 13:49:34;;;;;;;7.07;2.90;;;;;;;6.04;63.65;100845.00;1085566;54;19953;-80
2021/12/12 13:50:49;;;;;;;7.38;3.00;;;;;;;6.04;63.41;100842.34;1085367;54;20038;-80
2021/12/12 13:52:05;;;;;;;7.30;2.90;;;;;;;5.99;63.64;100839.09;1085531;54;20069;-79
2021/12/12 13:53:16;;;;;;;5.35;2.78;;;;;;;6.15;63.39;100846.09;1085182;54;20912;-80
2021/12/12 13:54:34;;;;;;;6.43;3.28;;;;;;;6.07;63.53;100839.47;1085270;54;20038;-81
2021/12/12 13:55:46;;;;;;;7.78;3.20;;;;;;;6.03;63.78;100832.66;1085183;54;21765;-81
2021/12/12 13:57:06;;;;;;;4.93;2.53;;;;;;;6.06;63.77;100840.41;1085166;54;20065;-79
2021/12/12 13:58:15;;;;;;;5.45;2.60;;;;;;;6.05;63.72;100835.22;1085362;54;20061;-79
2021/12/12 13:59:27;;;;;;;4.93;2.50;;;;;;;6.17;63.31;100836.22;1085419;54;20063;-77
2021/12/12 14:00:34;;;;;;;7.18;3.05;;;;;;;6.29;63.25;100837.25;1084918;54;20046;-79
2021/12/12 14:01:47;;;;;;;6.75;2.70;;;;;;;6.32;62.82;100837.94;1084934;54;20039;-79
2021/12/12 14:03:03;;;;;;;4.75;2.45;;;;;;;6.34;63.18;100836.00;1084574;54;20109;-81
2021/12/12 14:04:18;;;;;;;8.43;3.25;;;;;;;6.18;63.11;100835.28;1085025;54;20038;-80
2021/12/12 14:05:33;;;;;;;6.45;3.28;;;;;;;6.08;63.61;100843.84;1084976;54;20034;-80
2021/12/12 14:06:39;;;;;;;11.18;3.55;;;;;;;6.05;63.81;100848.47;1086929;46;20034;-80
2021/12/12 14:07:47;;;;;;;7.45;2.70;;;;;;;6.16;63.54;100847.81;1085276;54;20042;-79
2021/12/12 14:08:55;;;;;;;7.30;3.63;;;;;;;6.18;63.31;100837.94;1085404;54;20062;-80
2021/12/12 14:10:05;;;;;;;7.25;3.03;;;;;;;6.10;63.66;100846.38;1086903;46;20531;-80
2021/12/12 14:11:16;;;;;;;6.47;3.10;;;;;;;6.12;63.56;100838.34;1089010;39;20532;-81
2021/12/12 14:12:22;;;;;;;6.88;3.00;;;;;;;6.19;63.83;100848.47;1085448;54;20061;-81
2021/12/12 14:13:28;;;;;;;6.72;2.80;;;;;;;6.28;63.35;100849.69;1085479;46;20046;-82
2021/12/12 14:14:40;;;;;;;5.07;2.88;;;;;;;6.32;63.38;100842.38;1085334;54;20038;-80
2021/12/12 14:15:51;;;;;;;5.22;3.08;;;;;;;6.43;62.93;100847.88;1085028;54;20038;-81
2021/12/12 14:16:56;;;;;;;6.65;3.15;;;;;;;6.47;62.85;100844.03;1085573;54;20046;-79
2021/12/12 14:18:02;;;;;;;10.25;3.63;;;;;;;6.27;63.18;100840.00;1085821;47;20037;-79
2021/12/12 14:19:11;;;;;;;5.82;3.58;;;;;;;6.27;63.51;100844.50;1085241;54;20046;-78
2021/12/12 14:20:19;;;;;;;10.57;3.80;;;;;;;6.23;63.53;100857.09;1085519;54;20042;-81
2021/12/12 14:21:25;;;;;;;6.55;3.53;;;;;;;6.24;63.39;100853.47;1085591;54;20145;-80
2021/12/12 14:22:27;;;;;;;6.20;3.47;;;;;;;6.20;63.68;100851.97;1085401;54;20065;-79
2021/12/12 14:23:34;;;;;;;9.38;3.55;;;;;;;6.15;63.93;100854.94;1085438;54;20038;-78
2021/12/12 14:24:37;;;;;;;6.18;3.10;;;;;;;6.26;63.27;100858.72;1085449;54;20043;-80
2021/12/12 14:25:46;;;;;;;6.22;3.40;;;;;;;6.26;63.67;100856.06;1085465;54;20062;-78
2021/12/12 14:26:53;;;;;;;6.15;3.40;;;;;;;6.26;63.78;100853.41;1085412;54;20043;-79
2021/12/12 14:27:58;;;;;;;9.90;3.42;;;;;;;6.29;63.44;100867.34;1085726;54;20046;-79
2021/12/12 14:29:08;;;;;;;7.38;3.15;;;;;;;6.39;63.21;100855.19;1085329;47;20052;-79
2021/12/12 14:30:13;;;;;;;5.60;3.05;;;;;;;6.38;63.25;100858.78;1085408;54;20070;-80
2021/12/12 14:31:22;;;;;;;7.20;2.78;;;;;;;6.43;63.22;100854.97;1085227;54;20591;-79
2021/12/12 14:32:30;;;;;;;5.65;2.90;;;;;;;6.43;63.02;100841.69;1085031;54;20050;-78
2021/12/12 14:33:42;;;;;;;6.20;3.25;;;;;;;6.35;63.67;100840.38;1085916;39;21631;-79
2021/12/12 14:34:52;;;;;;;6.13;3.30;;;;;;;6.30;63.77;100842.50;1085128;54;20038;-79
2021/12/12 14:35:58;;;;;;;7.53;3.55;;;;;;;6.29;63.58;100840.78;1086473;39;20532;-78
2021/12/12 14:37:07;;;;;;;6.10;3.20;;;;;;;6.24;63.99;100842.84;1085430;54;20057;-79
2021/12/12 14:38:15;;;;;;;5.57;3.55;;;;;;;6.31;63.82;100846.84;1085154;54;20065;-80
2021/12/12 14:39:20;;;;;;;7.38;3.60;;;;;;;6.34;63.51;100843.13;1085407;54;20107;-80
2021/12/12 14:40:27;;;;;;;7.43;3.28;;;;;;;6.44;63.72;100848.69;1085429;54;20566;-79
2021/12/12 14:41:38;;;;;;;7.00;3.20;;;;;;;6.47;63.56;100845.84;1085933;54;20038;-81
2021/12/12 14:42:48;;;;;;;5.93;3.13;;;;;;;6.35;63.72;100848.34;1086006;54;20038;-81
2021/12/12 14:43:55;;;;;;;6.78;3.40;;;;;;;6.34;63.90;100846.63;1086088;54;20053;-80
2021/12/12 14:45:07;;;;;;;7.75;3.40;;;;;;;6.31;63.83;100846.84;1086122;54;20038;-80
2021/12/12 14:46:17;;;;;;;6.00;3.63;;;;;;;6.42;63.75;100851.47;1086325;54;20045;-80
2021/12/12 14:47:22;;;;;;;6.82;3.35;;;;;;;6.36;63.87;100851.88;1085876;54;20065;-80
2021/12/12 14:48:31;;;;;;;6.45;3.30;;;;;;;6.29;63.96;100850.53;1085683;54;20084;-79
2021/12/12 14:49:41;;;;;;;7.88;4.50;;;;;;;6.32;64.06;100853.88;1085869;54;20038;-82
2021/12/12 14:50:48;;;;;;;17.52;5.63;;;;;;;6.30;64.35;100850.44;1085566;54;20102;-80
2021/12/12 14:51:57;;;;;;;8.43;5.63;;;;;;;6.24;64.57;100849.03;1086014;54;20102;-79
2021/12/12 14:53:07;;;;;;;8.43;5.45;;;;;;;6.21;64.46;100854.53;1085789;54;20552;-79
2021/12/12 14:54:17;;;;;;;7.45;5.20;;;;;;;6.22;64.63;100860.72;1085725;54;20054;-81
2021/12/12 14:55:23;;;;;;;8.90;4.82;;;;;;;6.33;64.21;100866.16;1085799;54;20050;-79
2021/12/12 14:56:38;;;;;;;8.32;5.15;;;;;;;6.28;64.28;100854.16;1086306;54;20042;-80
2021/12/12 14:57:48;;;;;;;9.95;5.78;;;;;;;6.35;64.24;100856.31;1085799;54;20045;-80
2021/12/12 14:58:56;;;;;;;6.93;4.60;;;;;;;6.43;64.08;100862.94;1086734;54;20665;-80
2021/12/12 15:00:02;;;;;;;8.02;4.80;;;;;;;6.42;64.18;100861.25;1085676;54;20057;-79
2021/12/12 15:01:09;;;;;;;11.18;5.00;;;;;;;6.36;64.38;100865.16;1085498;54;20045;-79
2021/12/12 15:02:16;;;;;;;8.63;4.85;;;;;;;6.37;64.44;100865.03;1085397;54;20065;-80
2021/12/12 15:03:25;;;;;;;7.97;4.63;;;;;;;6.35;64.56;100858.13;1085877;54;20888;-79
2021/12/12 15:04:35;;;;;;;7.82;4.65;;;;;;;6.35;64.39;100864.28;1085532;54;20662;-80
2021/12/12 15:05:41;;;;;;;7.72;4.53;;;;;;;6.35;64.66;100863.44;1085159;54;20038;-81
2021/12/12 15:06:50;;;;;;;7.72;4.75;;;;;;;6.46;64.32;100862.75;1085593;54;20046;-79
2021/12/12 15:07:54;;;;;;;6.93;4.22;;;;;;;6.38;64.48;100863.22;1085542;54;20061;-80
2021/12/12 15:09:02;;;;;;;7.43;4.53;;;;;;;6.31;64.71;100865.44;1085919;54;21129;-79
2021/12/12 15:10:11;;;;;;;8.00;4.53;;;;;;;6.40;64.40;100867.50;1085690;54;20570;-79
2021/12/12 15:11:18;;;;;;;8.30;4.50;;;;;;;6.37;64.89;100870.34;1085462;54;20045;-80
2021/12/12 15:12:23;;;;;;;9.18;4.63;;;;;;;6.25;64.81;100873.78;1085535;54;20038;-85
2021/12/12 15:13:31;;;;;;;8.50;3.85;;;;;;;6.31;64.74;100873.41;1085723;54;20039;-80
2021/12/12 15:14:38;;;;;;;7.55;4.35;;;;;;;6.45;64.56;100877.84;1085730;54;20072;-80
2021/12/12 15:15:46;;;;;;;6.47;4.10;;;;;;;6.37;64.71;100885.44;1085459;54;20046;-78
2021/12/12 15:16:51;;;;;;;7.88;3.95;;;;;;;6.33;64.88;100879.44;1086738;39;21134;-80
2021/12/12 15:17:58;;;;;;;10.18;4.40;;;;;;;6.27;64.96;100885.16;1085476;54;20924;-80
2021/12/12 15:19:10;;;;;;;7.70;3.95;;;;;;;6.31;64.73;100881.38;1085847;54;20038;-78
2021/12/12 15:20:23;;;;;;;7.28;4.20;;;;;;;6.32;64.92;100893.72;1086251;39;20544;-80
2021/12/12 15:21:34;;;;;;;7.35;3.88;;;;;;;6.28;64.88;100888.69;1085065;54;20034;-80
2021/12/12 15:22:37;;;;;;;11.07;4.15;;;;;;;6.35;64.75;100882.88;1085209;54;20042;-79
2021/12/12 15:23:50;;;;;;;7.10;3.90;;;;;;;6.47;64.55;100885.69;1085617;54;20046;-80
2021/12/12 15:24:59;;;;;;;8.10;3.63;;;;;;;6.45;64.30;100888.47;1085389;54;20039;-81
2021/12/12 15:26:09;;;;;;;9.07;3.70;;;;;;;6.45;64.44;100887.59;1085646;54;20046;-80
2021/12/12 15:27:16;;;;;;;6.25;3.92;;;;;;;6.56;64.18;100879.81;1085483;54;20067;-79
2021/12/12 15:28:20;;;;;;;5.93;3.20;;;;;;;6.67;63.99;100884.41;1085354;54;20038;-79
2021/12/12 15:29:31;;;;;;;5.18;2.65;;;;;;;6.68;63.86;100887.00;1084903;54;20046;-81
2021/12/12 15:30:34;;;;;;;5.50;3.05;;;;;;;6.68;63.81;100888.78;1086850;39;20557;-80